sensor_id;sensor_type;location;lat;lon;timestamp;temperature;humidity
36710;DHT22;22694;51.040;3.684;2022-11-15T00:19:28;13.50;90.60
36710;DHT22;22694;51.040;3.684;2022-11-15T00:21:53;13.50;90.60
36710;DHT22;22694;51.040;3.684;2022-11-15T00:24:19;13.40;90.60
36710;DHT22;22694;51.040;3.684;2022-11-15T00:26:45;13.50;90.70
36710;DHT22;22694;51.040;3.684;2022-11-15T00:29:11;13.50;90.70
36710;DHT22;22694;51.040;3.684;2022-11-15T00:36:57;13.50;90.70
36710;DHT22;22694;51.040;3.684;2022-11-15T00:39:23;13.50;90.70
36710;DHT22;22694;51.040;3.684;2022-11-15T00:41:48;13.50;90.70
36710;DHT22;22694;51.040;3.684;2022-11-15T00:44:14;13.50;90.80
36710;DHT22;22694;51.040;3.684;2022-11-15T00:46:39;13.50;90.80
36710;DHT22;22694;51.040;3.684;2022-11-15T00:49:05;13.50;90.80
36710;DHT22;22694;51.040;3.684;2022-11-15T00:51:30;13.50;90.80
36710;DHT22;22694;51.040;3.684;2022-11-15T00:56:31;13.50;90.80
36710;DHT22;22694;51.040;3.684;2022-11-15T00:58:57;13.50;90.80
36710;DHT22;22694;51.040;3.684;2022-11-15T01:01:23;13.60;90.80
36710;DHT22;22694;51.040;3.684;2022-11-15T01:03:48;13.60;90.80
36710;DHT22;22694;51.040;3.684;2022-11-15T01:06:16;13.60;90.90
36710;DHT22;22694;51.040;3.684;2022-11-15T01:08:55;13.60;90.90
36710;DHT22;22694;51.040;3.684;2022-11-15T01:11:21;13.60;90.90
36710;DHT22;22694;51.040;3.684;2022-11-15T01:13:46;13.60;91.00
36710;DHT22;22694;51.040;3.684;2022-11-15T01:16:15;13.60;90.90
36710;DHT22;22694;51.040;3.684;2022-11-15T01:18:42;13.60;90.90
36710;DHT22;22694;51.040;3.684;2022-11-15T01:21:13;13.60;90.90
36710;DHT22;22694;51.040;3.684;2022-11-15T01:23:39;13.60;90.90
36710;DHT22;22694;51.040;3.684;2022-11-15T01:26:09;13.60;90.90
36710;DHT22;22694;51.040;3.684;2022-11-15T01:28:36;13.60;90.90
36710;DHT22;22694;51.040;3.684;2022-11-15T01:31:04;13.60;90.90
36710;DHT22;22694;51.040;3.684;2022-11-15T01:33:33;13.70;90.90
36710;DHT22;22694;51.040;3.684;2022-11-15T01:36:03;13.60;90.90
36710;DHT22;22694;51.040;3.684;2022-11-15T01:38:29;13.70;90.90
36710;DHT22;22694;51.040;3.684;2022-11-15T01:40:55;13.70;90.90
36710;DHT22;22694;51.040;3.684;2022-11-15T01:43:26;13.70;90.90
36710;DHT22;22694;51.040;3.684;2022-11-15T01:45:56;13.70;90.90
36710;DHT22;22694;51.040;3.684;2022-11-15T01:48:30;13.70;90.90
36710;DHT22;22694;51.040;3.684;2022-11-15T01:50:57;13.70;90.90
36710;DHT22;22694;51.040;3.684;2022-11-15T01:53:25;13.70;90.90
36710;DHT22;22694;51.040;3.684;2022-11-15T01:55:52;13.70;91.00
36710;DHT22;22694;51.040;3.684;2022-11-15T01:58:18;13.70;91.00
36710;DHT22;22694;51.040;3.684;2022-11-15T02:00:43;13.70;91.00
36710;DHT22;22694;51.040;3.684;2022-11-15T02:03:09;13.70;91.00
36710;DHT22;22694;51.040;3.684;2022-11-15T02:05:36;13.70;91.00
36710;DHT22;22694;51.040;3.684;2022-11-15T02:08:02;13.70;91.00
36710;DHT22;22694;51.040;3.684;2022-11-15T02:10:28;13.70;91.00
36710;DHT22;22694;51.040;3.684;2022-11-15T02:12:55;13.70;91.00
36710;DHT22;22694;51.040;3.684;2022-11-15T02:15:23;13.80;91.00
36710;DHT22;22694;51.040;3.684;2022-11-15T02:20:47;13.80;91.00
36710;DHT22;22694;51.040;3.684;2022-11-15T02:23:37;13.80;91.00
36710;DHT22;22694;51.040;3.684;2022-11-15T02:26:29;13.80;91.10
36710;DHT22;22694;51.040;3.684;2022-11-15T02:29:12;13.80;91.00
36710;DHT22;22694;51.040;3.684;2022-11-15T02:32:04;13.80;91.00
36710;DHT22;22694;51.040;3.684;2022-11-15T02:34:48;13.80;91.00
36710;DHT22;22694;51.040;3.684;2022-11-15T02:43:02;13.80;91.10
36710;DHT22;22694;51.040;3.684;2022-11-15T02:45:53;13.80;91.10
36710;DHT22;22694;51.040;3.684;2022-11-15T02:48:21;13.80;91.10
36710;DHT22;22694;51.040;3.684;2022-11-15T02:58:49;13.80;91.10
36710;DHT22;22694;51.040;3.684;2022-11-15T03:04:23;13.90;91.10
36710;DHT22;22694;51.040;3.684;2022-11-15T03:07:17;13.90;91.10
36710;DHT22;22694;51.040;3.684;2022-11-15T03:09:54;13.90;91.10
36710;DHT22;22694;51.040;3.684;2022-11-15T03:12:43;13.80;91.10
36710;DHT22;22694;51.040;3.684;2022-11-15T03:18:32;13.80;91.10
36710;DHT22;22694;51.040;3.684;2022-11-15T03:21:02;14.10;91.20
36710;DHT22;22694;51.040;3.684;2022-11-15T03:23:30;13.90;91.20
36710;DHT22;22694;51.040;3.684;2022-11-15T03:25:58;13.90;91.50
36710;DHT22;22694;51.040;3.684;2022-11-15T03:31:22;13.80;91.20
36710;DHT22;22694;51.040;3.684;2022-11-15T03:34:15;13.90;91.30
36710;DHT22;22694;51.040;3.684;2022-11-15T03:36:44;13.90;91.30
36710;DHT22;22694;51.040;3.684;2022-11-15T03:39:13;13.90;91.30
36710;DHT22;22694;51.040;3.684;2022-11-15T03:44:46;13.90;91.30
36710;DHT22;22694;51.040;3.684;2022-11-15T03:47:34;13.90;91.40
36710;DHT22;22694;51.040;3.684;2022-11-15T03:50:15;13.90;91.30
36710;DHT22;22694;51.040;3.684;2022-11-15T03:52:42;13.80;91.40
36710;DHT22;22694;51.040;3.684;2022-11-15T03:55:12;13.90;91.40
36710;DHT22;22694;51.040;3.684;2022-11-15T03:57:38;13.90;91.40
36710;DHT22;22694;51.040;3.684;2022-11-15T04:00:05;13.90;91.50
36710;DHT22;22694;51.040;3.684;2022-11-15T04:02:30;13.90;91.50
36710;DHT22;22694;51.040;3.684;2022-11-15T04:04:56;13.90;91.50
36710;DHT22;22694;51.040;3.684;2022-11-15T04:07:22;13.90;91.70
36710;DHT22;22694;51.040;3.684;2022-11-15T04:09:47;13.90;91.50
36710;DHT22;22694;51.040;3.684;2022-11-15T04:12:33;13.90;91.50
36710;DHT22;22694;51.040;3.684;2022-11-15T04:15:07;13.80;91.50
36710;DHT22;22694;51.040;3.684;2022-11-15T04:17:54;13.80;91.50
36710;DHT22;22694;51.040;3.684;2022-11-15T04:20:26;13.80;91.60
36710;DHT22;22694;51.040;3.684;2022-11-15T04:26:03;13.90;91.60
36710;DHT22;22694;51.040;3.684;2022-11-15T04:28:29;13.80;91.50
36710;DHT22;22694;51.040;3.684;2022-11-15T04:30:54;13.80;91.50
36710;DHT22;22694;51.040;3.684;2022-11-15T04:33:20;13.80;91.60
36710;DHT22;22694;51.040;3.684;2022-11-15T04:35:46;13.80;91.60
36710;DHT22;22694;51.040;3.684;2022-11-15T04:38:32;13.80;91.60
36710;DHT22;22694;51.040;3.684;2022-11-15T04:40:57;13.80;91.60
36710;DHT22;22694;51.040;3.684;2022-11-15T04:43:23;13.80;91.80
36710;DHT22;22694;51.040;3.684;2022-11-15T04:45:49;13.80;91.50
36710;DHT22;22694;51.040;3.684;2022-11-15T04:48:14;13.80;91.40
36710;DHT22;22694;51.040;3.684;2022-11-15T04:50:40;13.80;91.50
36710;DHT22;22694;51.040;3.684;2022-11-15T04:53:08;13.80;91.50
36710;DHT22;22694;51.040;3.684;2022-11-15T04:55:34;13.80;91.50
36710;DHT22;22694;51.040;3.684;2022-11-15T04:58:00;13.80;91.50
36710;DHT22;22694;51.040;3.684;2022-11-15T05:00:28;13.80;91.50
36710;DHT22;22694;51.040;3.684;2022-11-15T05:02:54;13.80;91.50
36710;DHT22;22694;51.040;3.684;2022-11-15T05:05:38;13.70;91.40
36710;DHT22;22694;51.040;3.684;2022-11-15T05:08:04;13.80;91.30
36710;DHT22;22694;51.040;3.684;2022-11-15T05:10:30;13.80;91.40
36710;DHT22;22694;51.040;3.684;2022-11-15T05:12:56;13.80;91.30
36710;DHT22;22694;51.040;3.684;2022-11-15T05:15:21;13.70;91.30
36710;DHT22;22694;51.040;3.684;2022-11-15T05:17:47;13.70;91.30
36710;DHT22;22694;51.040;3.684;2022-11-15T05:20:13;13.90;92.10
36710;DHT22;22694;51.040;3.684;2022-11-15T05:22:38;14.00;92.40
36710;DHT22;22694;51.040;3.684;2022-11-15T05:25:04;14.10;92.30
36710;DHT22;22694;51.040;3.684;2022-11-15T05:27:30;14.10;92.00
36710;DHT22;22694;51.040;3.684;2022-11-15T05:29:56;14.10;91.80
36710;DHT22;22694;51.040;3.684;2022-11-15T05:32:21;14.10;91.60
36710;DHT22;22694;51.040;3.684;2022-11-15T05:34:47;14.10;91.80
36710;DHT22;22694;51.040;3.684;2022-11-15T05:37:14;14.10;91.90
36710;DHT22;22694;51.040;3.684;2022-11-15T05:39:39;14.10;91.90
36710;DHT22;22694;51.040;3.684;2022-11-15T05:44:34;14.10;91.60
36710;DHT22;22694;51.040;3.684;2022-11-15T05:47:02;14.10;91.60
36710;DHT22;22694;51.040;3.684;2022-11-15T05:49:31;14.10;91.60
36710;DHT22;22694;51.040;3.684;2022-11-15T05:51:59;14.10;91.50
36710;DHT22;22694;51.040;3.684;2022-11-15T05:54:25;14.10;91.50
36710;DHT22;22694;51.040;3.684;2022-11-15T05:56:51;14.10;91.50
36710;DHT22;22694;51.040;3.684;2022-11-15T05:59:17;14.00;91.40
36710;DHT22;22694;51.040;3.684;2022-11-15T06:01:43;14.10;91.40
36710;DHT22;22694;51.040;3.684;2022-11-15T06:04:08;14.10;91.30
36710;DHT22;22694;51.040;3.684;2022-11-15T06:06:34;14.00;91.30
36710;DHT22;22694;51.040;3.684;2022-11-15T06:09:00;14.00;91.30
36710;DHT22;22694;51.040;3.684;2022-11-15T06:11:25;14.10;91.30
36710;DHT22;22694;51.040;3.684;2022-11-15T06:13:51;14.00;91.30
36710;DHT22;22694;51.040;3.684;2022-11-15T06:16:16;14.10;91.50
36710;DHT22;22694;51.040;3.684;2022-11-15T06:18:43;14.10;91.70
36710;DHT22;22694;51.040;3.684;2022-11-15T06:21:08;14.20;91.80
36710;DHT22;22694;51.040;3.684;2022-11-15T06:23:34;14.20;91.60
36710;DHT22;22694;51.040;3.684;2022-11-15T06:26:01;14.20;91.50
36710;DHT22;22694;51.040;3.684;2022-11-15T06:28:31;14.20;91.40
36710;DHT22;22694;51.040;3.684;2022-11-15T06:31:02;14.20;91.30
36710;DHT22;22694;51.040;3.684;2022-11-15T06:33:28;14.20;91.20
36710;DHT22;22694;51.040;3.684;2022-11-15T06:35:54;14.10;91.00
36710;DHT22;22694;51.040;3.684;2022-11-15T06:38:20;14.10;90.90
36710;DHT22;22694;51.040;3.684;2022-11-15T06:40:45;14.10;90.90
36710;DHT22;22694;51.040;3.684;2022-11-15T06:43:11;14.10;90.80
36710;DHT22;22694;51.040;3.684;2022-11-15T06:45:37;14.10;90.70
36710;DHT22;22694;51.040;3.684;2022-11-15T06:48:02;14.10;90.70
36710;DHT22;22694;51.040;3.684;2022-11-15T06:50:28;14.10;90.70
36710;DHT22;22694;51.040;3.684;2022-11-15T06:52:54;14.00;90.80
36710;DHT22;22694;51.040;3.684;2022-11-15T06:55:19;14.10;90.80
36710;DHT22;22694;51.040;3.684;2022-11-15T06:57:52;14.10;90.70
36710;DHT22;22694;51.040;3.684;2022-11-15T07:00:19;14.10;91.10
36710;DHT22;22694;51.040;3.684;2022-11-15T07:02:46;14.20;91.60
36710;DHT22;22694;51.040;3.684;2022-11-15T07:05:12;14.40;91.80
36710;DHT22;22694;51.040;3.684;2022-11-15T07:07:38;14.50;92.90
36710;DHT22;22694;51.040;3.684;2022-11-15T07:10:05;14.80;93.70
36710;DHT22;22694;51.040;3.684;2022-11-15T07:12:31;15.00;93.30
36710;DHT22;22694;51.040;3.684;2022-11-15T07:14:56;15.10;92.90
36710;DHT22;22694;51.040;3.684;2022-11-15T07:17:22;15.30;92.60
36710;DHT22;22694;51.040;3.684;2022-11-15T07:19:47;15.40;92.60
36710;DHT22;22694;51.040;3.684;2022-11-15T07:22:13;15.40;92.80
36710;DHT22;22694;51.040;3.684;2022-11-15T07:24:38;15.50;93.10
36710;DHT22;22694;51.040;3.684;2022-11-15T07:27:04;15.60;93.00
36710;DHT22;22694;51.040;3.684;2022-11-15T07:29:30;15.70;93.20
36710;DHT22;22694;51.040;3.684;2022-11-15T07:31:55;16.00;93.80
36710;DHT22;22694;51.040;3.684;2022-11-15T07:34:21;16.20;92.70
36710;DHT22;22694;51.040;3.684;2022-11-15T07:36:46;16.40;92.00
36710;DHT22;22694;51.040;3.684;2022-11-15T07:39:12;16.40;91.40
36710;DHT22;22694;51.040;3.684;2022-11-15T07:41:39;16.40;91.30
36710;DHT22;22694;51.040;3.684;2022-11-15T07:44:05;16.60;91.10
36710;DHT22;22694;51.040;3.684;2022-11-15T07:46:31;16.70;90.90
36710;DHT22;22694;51.040;3.684;2022-11-15T07:48:57;16.70;90.60
36710;DHT22;22694;51.040;3.684;2022-11-15T07:51:23;16.80;90.40
36710;DHT22;22694;51.040;3.684;2022-11-15T07:53:48;16.90;90.20
36710;DHT22;22694;51.040;3.684;2022-11-15T07:56:14;16.80;90.10
36710;DHT22;22694;51.040;3.684;2022-11-15T07:58:40;16.80;89.90
36710;DHT22;22694;51.040;3.684;2022-11-15T08:01:06;16.80;89.80
36710;DHT22;22694;51.040;3.684;2022-11-15T08:03:33;16.80;89.60
36710;DHT22;22694;51.040;3.684;2022-11-15T08:05:59;16.80;89.50
36710;DHT22;22694;51.040;3.684;2022-11-15T08:08:24;16.80;89.30
36710;DHT22;22694;51.040;3.684;2022-11-15T08:10:50;16.80;89.20
36710;DHT22;22694;51.040;3.684;2022-11-15T08:13:16;16.80;89.10
36710;DHT22;22694;51.040;3.684;2022-11-15T08:15:41;16.70;89.00
36710;DHT22;22694;51.040;3.684;2022-11-15T08:18:13;16.70;89.10
36710;DHT22;22694;51.040;3.684;2022-11-15T08:20:39;16.60;89.10
36710;DHT22;22694;51.040;3.684;2022-11-15T08:23:05;16.40;89.00
36710;DHT22;22694;51.040;3.684;2022-11-15T08:25:32;16.30;88.80
36710;DHT22;22694;51.040;3.684;2022-11-15T08:28:02;16.30;89.20
36710;DHT22;22694;51.040;3.684;2022-11-15T08:30:28;16.20;89.30
36710;DHT22;22694;51.040;3.684;2022-11-15T08:32:57;16.10;89.50
36710;DHT22;22694;51.040;3.684;2022-11-15T08:35:23;16.00;89.70
36710;DHT22;22694;51.040;3.684;2022-11-15T08:37:49;16.00;89.90
36710;DHT22;22694;51.040;3.684;2022-11-15T08:40:15;15.90;90.00
36710;DHT22;22694;51.040;3.684;2022-11-15T08:42:41;15.90;90.10
36710;DHT22;22694;51.040;3.684;2022-11-15T08:45:07;15.90;90.20
36710;DHT22;22694;51.040;3.684;2022-11-15T08:47:34;15.90;90.20
36710;DHT22;22694;51.040;3.684;2022-11-15T08:50:00;15.90;90.40
36710;DHT22;22694;51.040;3.684;2022-11-15T08:52:26;15.90;90.40
36710;DHT22;22694;51.040;3.684;2022-11-15T08:54:51;15.90;90.40
36710;DHT22;22694;51.040;3.684;2022-11-15T08:57:17;16.00;90.50
36710;DHT22;22694;51.040;3.684;2022-11-15T08:59:42;16.00;90.50
36710;DHT22;22694;51.040;3.684;2022-11-15T09:02:13;16.00;90.40
36710;DHT22;22694;51.040;3.684;2022-11-15T09:04:43;16.00;90.20
36710;DHT22;22694;51.040;3.684;2022-11-15T09:07:12;15.70;88.30
36710;DHT22;22694;51.040;3.684;2022-11-15T09:09:38;15.60;88.20
36710;DHT22;22694;51.040;3.684;2022-11-15T09:12:05;15.50;88.70
36710;DHT22;22694;51.040;3.684;2022-11-15T09:14:31;15.30;89.10
36710;DHT22;22694;51.040;3.684;2022-11-15T09:16:56;15.20;89.60
36710;DHT22;22694;51.040;3.684;2022-11-15T09:19:22;15.10;89.90
36710;DHT22;22694;51.040;3.684;2022-11-15T09:21:47;15.10;90.10
36710;DHT22;22694;51.040;3.684;2022-11-15T09:24:13;15.00;90.30
36710;DHT22;22694;51.040;3.684;2022-11-15T09:26:39;14.90;90.40
36710;DHT22;22694;51.040;3.684;2022-11-15T09:29:05;14.80;90.40
36710;DHT22;22694;51.040;3.684;2022-11-15T09:31:30;14.80;90.50
36710;DHT22;22694;51.040;3.684;2022-11-15T09:33:56;14.80;90.60
36710;DHT22;22694;51.040;3.684;2022-11-15T09:36:22;14.70;90.60
36710;DHT22;22694;51.040;3.684;2022-11-15T09:38:47;14.70;90.70
36710;DHT22;22694;51.040;3.684;2022-11-15T09:49:13;14.60;90.90
36710;DHT22;22694;51.040;3.684;2022-11-15T09:51:43;14.50;90.90
36710;DHT22;22694;51.040;3.684;2022-11-15T09:57:02;14.50;90.90
36710;DHT22;22694;51.040;3.684;2022-11-15T09:59:48;14.50;91.00
36710;DHT22;22694;51.040;3.684;2022-11-15T10:05:10;14.50;91.10
36710;DHT22;22694;51.040;3.684;2022-11-15T10:08:03;14.40;91.00
36710;DHT22;22694;51.040;3.684;2022-11-15T10:10:46;14.40;91.00
36710;DHT22;22694;51.040;3.684;2022-11-15T10:13:22;14.40;91.10
36710;DHT22;22694;51.040;3.684;2022-11-15T10:15:48;14.40;91.20
36710;DHT22;22694;51.040;3.684;2022-11-15T10:18:35;14.40;91.10
36710;DHT22;22694;51.040;3.684;2022-11-15T10:21:20;14.40;91.20
36710;DHT22;22694;51.040;3.684;2022-11-15T10:23:47;14.40;91.20
36710;DHT22;22694;51.040;3.684;2022-11-15T10:26:16;14.40;91.20
36710;DHT22;22694;51.040;3.684;2022-11-15T10:28:41;14.40;91.20
36710;DHT22;22694;51.040;3.684;2022-11-15T10:31:28;14.40;91.20
36710;DHT22;22694;51.040;3.684;2022-11-15T10:36:36;14.40;91.20
36710;DHT22;22694;51.040;3.684;2022-11-15T10:39:03;14.40;91.20
36710;DHT22;22694;51.040;3.684;2022-11-15T10:41:32;14.40;91.20
36710;DHT22;22694;51.040;3.684;2022-11-15T10:46:47;14.40;91.20
36710;DHT22;22694;51.040;3.684;2022-11-15T10:49:28;14.40;91.20
36710;DHT22;22694;51.040;3.684;2022-11-15T10:51:54;14.40;91.20
36710;DHT22;22694;51.040;3.684;2022-11-15T10:54:25;14.40;91.20
36710;DHT22;22694;51.040;3.684;2022-11-15T10:56:55;14.40;91.20
36710;DHT22;22694;51.040;3.684;2022-11-15T10:59:33;14.40;91.20
36710;DHT22;22694;51.040;3.684;2022-11-15T11:01:59;14.40;91.20
36710;DHT22;22694;51.040;3.684;2022-11-15T11:04:25;14.40;91.40
36710;DHT22;22694;51.040;3.684;2022-11-15T11:06:56;14.50;91.40
36710;DHT22;22694;51.040;3.684;2022-11-15T11:09:38;14.50;91.30
36710;DHT22;22694;51.040;3.684;2022-11-15T11:12:08;14.50;91.30
36710;DHT22;22694;51.040;3.684;2022-11-15T11:14:37;14.50;91.30
36710;DHT22;22694;51.040;3.684;2022-11-15T11:17:05;14.50;91.30
36710;DHT22;22694;51.040;3.684;2022-11-15T11:30:34;14.50;91.20
36710;DHT22;22694;51.040;3.684;2022-11-15T11:33:20;14.50;91.20
36710;DHT22;22694;51.040;3.684;2022-11-15T11:39:24;14.60;91.20
36710;DHT22;22694;51.040;3.684;2022-11-15T11:41:59;14.60;91.30
36710;DHT22;22694;51.040;3.684;2022-11-15T11:45:02;14.60;91.30
36710;DHT22;22694;51.040;3.684;2022-11-15T11:47:39;14.60;91.30
36710;DHT22;22694;51.040;3.684;2022-11-15T11:50:17;14.60;91.30
36710;DHT22;22694;51.040;3.684;2022-11-15T11:53:11;14.60;91.20
36710;DHT22;22694;51.040;3.684;2022-11-15T11:55:47;14.60;91.20
36710;DHT22;22694;51.040;3.684;2022-11-15T11:58:20;14.60;91.20
36710;DHT22;22694;51.040;3.684;2022-11-15T12:01:13;14.60;91.30
36710;DHT22;22694;51.040;3.684;2022-11-15T12:03:47;14.70;91.30
36710;DHT22;22694;51.040;3.684;2022-11-15T12:08:52;14.70;91.30
36710;DHT22;22694;51.040;3.684;2022-11-15T12:13:49;14.70;91.30
36710;DHT22;22694;51.040;3.684;2022-11-15T12:16:19;14.60;91.20
36710;DHT22;22694;51.040;3.684;2022-11-15T12:18:51;14.70;91.30
36710;DHT22;22694;51.040;3.684;2022-11-15T12:21:51;14.60;91.20
36710;DHT22;22694;51.040;3.684;2022-11-15T12:26:53;14.70;91.20
36710;DHT22;22694;51.040;3.684;2022-11-15T12:29:39;14.70;91.20
36710;DHT22;22694;51.040;3.684;2022-11-15T12:32:21;14.70;91.20
36710;DHT22;22694;51.040;3.684;2022-11-15T12:34:50;14.70;91.20
36710;DHT22;22694;51.040;3.684;2022-11-15T12:42:39;14.70;91.30
36710;DHT22;22694;51.040;3.684;2022-11-15T12:45:28;14.70;91.30
36710;DHT22;22694;51.040;3.684;2022-11-15T12:58:52;14.80;91.30
36710;DHT22;22694;51.040;3.684;2022-11-15T13:06:48;14.80;91.30
36710;DHT22;22694;51.040;3.684;2022-11-15T13:12:02;14.80;91.30
36710;DHT22;22694;51.040;3.684;2022-11-15T13:14:40;14.80;91.30
36710;DHT22;22694;51.040;3.684;2022-11-15T13:20:29;14.80;91.20
36710;DHT22;22694;51.040;3.684;2022-11-15T13:25:39;14.80;91.50
36710;DHT22;22694;51.040;3.684;2022-11-15T13:28:18;14.80;91.20
36710;DHT22;22694;51.040;3.684;2022-11-15T13:30:51;14.80;91.20
36710;DHT22;22694;51.040;3.684;2022-11-15T13:35:49;14.80;91.20
36710;DHT22;22694;51.040;3.684;2022-11-15T13:38:30;14.80;91.20
36710;DHT22;22694;51.040;3.684;2022-11-15T13:40:58;14.80;91.30
36710;DHT22;22694;51.040;3.684;2022-11-15T13:43:32;14.80;91.30
36710;DHT22;22694;51.040;3.684;2022-11-15T13:46:23;14.80;91.20
36710;DHT22;22694;51.040;3.684;2022-11-15T13:53:51;15.10;91.50
36710;DHT22;22694;51.040;3.684;2022-11-15T13:56:19;15.10;91.20
36710;DHT22;22694;51.040;3.684;2022-11-15T13:58:46;15.20;91.00
36710;DHT22;22694;51.040;3.684;2022-11-15T14:01:19;15.30;90.90
36710;DHT22;22694;51.040;3.684;2022-11-15T14:03:52;15.30;90.80
36710;DHT22;22694;51.040;3.684;2022-11-15T14:06:20;15.30;90.70
36710;DHT22;22694;51.040;3.684;2022-11-15T14:11:35;15.30;90.70
36710;DHT22;22694;51.040;3.684;2022-11-15T14:14:04;15.20;90.70
36710;DHT22;22694;51.040;3.684;2022-11-15T14:16:50;15.20;90.70
36710;DHT22;22694;51.040;3.684;2022-11-15T14:24:33;15.30;90.80
36710;DHT22;22694;51.040;3.684;2022-11-15T14:27:23;15.40;91.20
36710;DHT22;22694;51.040;3.684;2022-11-15T14:29:50;15.70;91.00
36710;DHT22;22694;51.040;3.684;2022-11-15T14:32:29;15.70;90.70
36710;DHT22;22694;51.040;3.684;2022-11-15T14:35:00;15.80;90.50
36710;DHT22;22694;51.040;3.684;2022-11-15T14:37:33;15.80;90.50
36710;DHT22;22694;51.040;3.684;2022-11-15T14:40:04;15.80;90.50
36710;DHT22;22694;51.040;3.684;2022-11-15T14:42:30;15.80;90.50
36710;DHT22;22694;51.040;3.684;2022-11-15T14:44:56;15.80;90.60
36710;DHT22;22694;51.040;3.684;2022-11-15T14:47:22;15.80;90.80
36710;DHT22;22694;51.040;3.684;2022-11-15T14:49:47;15.70;90.80
36710;DHT22;22694;51.040;3.684;2022-11-15T14:54:49;15.70;90.80
36710;DHT22;22694;51.040;3.684;2022-11-15T14:57:15;15.70;90.90
36710;DHT22;22694;51.040;3.684;2022-11-15T14:59:40;15.70;90.90
36710;DHT22;22694;51.040;3.684;2022-11-15T15:02:25;15.70;90.80
36710;DHT22;22694;51.040;3.684;2022-11-15T15:04:52;15.70;90.80
36710;DHT22;22694;51.040;3.684;2022-11-15T15:07:18;15.70;90.80
36710;DHT22;22694;51.040;3.684;2022-11-15T15:09:44;15.70;90.80
36710;DHT22;22694;51.040;3.684;2022-11-15T15:12:18;15.70;90.90
36710;DHT22;22694;51.040;3.684;2022-11-15T15:14:45;15.70;90.90
36710;DHT22;22694;51.040;3.684;2022-11-15T15:17:11;15.70;90.90
36710;DHT22;22694;51.040;3.684;2022-11-15T15:19:37;15.70;90.90
36710;DHT22;22694;51.040;3.684;2022-11-15T15:22:03;15.70;91.00
36710;DHT22;22694;51.040;3.684;2022-11-15T15:24:29;15.80;91.00
36710;DHT22;22694;51.040;3.684;2022-11-15T15:26:54;15.80;91.10
36710;DHT22;22694;51.040;3.684;2022-11-15T15:29:20;15.80;91.00
36710;DHT22;22694;51.040;3.684;2022-11-15T15:31:45;15.80;91.00
36710;DHT22;22694;51.040;3.684;2022-11-15T15:34:11;15.80;91.10
36710;DHT22;22694;51.040;3.684;2022-11-15T15:36:36;15.80;91.00
36710;DHT22;22694;51.040;3.684;2022-11-15T15:39:02;15.80;91.00
36710;DHT22;22694;51.040;3.684;2022-11-15T15:41:28;15.80;91.00
36710;DHT22;22694;51.040;3.684;2022-11-15T15:43:53;15.90;91.70
36710;DHT22;22694;51.040;3.684;2022-11-15T15:46:19;16.10;91.50
36710;DHT22;22694;51.040;3.684;2022-11-15T15:48:46;16.10;91.30
36710;DHT22;22694;51.040;3.684;2022-11-15T15:51:12;16.00;91.00
36710;DHT22;22694;51.040;3.684;2022-11-15T15:53:38;16.00;90.80
36710;DHT22;22694;51.040;3.684;2022-11-15T15:56:04;15.90;90.70
36710;DHT22;22694;51.040;3.684;2022-11-15T15:58:33;15.90;90.70
36710;DHT22;22694;51.040;3.684;2022-11-15T16:00:59;15.80;90.50
36710;DHT22;22694;51.040;3.684;2022-11-15T16:03:24;15.90;91.90
36710;DHT22;22694;51.040;3.684;2022-11-15T16:05:50;16.20;92.40
36710;DHT22;22694;51.040;3.684;2022-11-15T16:08:21;16.30;91.90
36710;DHT22;22694;51.040;3.684;2022-11-15T16:10:47;16.30;91.40
36710;DHT22;22694;51.040;3.684;2022-11-15T16:13:13;16.20;91.20
36710;DHT22;22694;51.040;3.684;2022-11-15T16:15:39;16.10;91.10
36710;DHT22;22694;51.040;3.684;2022-11-15T16:18:05;16.00;91.00
36710;DHT22;22694;51.040;3.684;2022-11-15T16:20:45;16.00;91.00
36710;DHT22;22694;51.040;3.684;2022-11-15T16:23:13;15.90;91.00
36710;DHT22;22694;51.040;3.684;2022-11-15T16:25:50;15.80;90.90
36710;DHT22;22694;51.040;3.684;2022-11-15T16:28:22;15.80;90.90
36710;DHT22;22694;51.040;3.684;2022-11-15T16:30:49;15.80;90.90
36710;DHT22;22694;51.040;3.684;2022-11-15T16:33:15;15.70;90.80
36710;DHT22;22694;51.040;3.684;2022-11-15T16:35:43;15.70;90.90
36710;DHT22;22694;51.040;3.684;2022-11-15T16:38:14;15.70;90.90
36710;DHT22;22694;51.040;3.684;2022-11-15T16:40:40;15.70;90.90
36710;DHT22;22694;51.040;3.684;2022-11-15T16:43:06;15.70;90.90
36710;DHT22;22694;51.040;3.684;2022-11-15T16:45:34;15.60;90.90
36710;DHT22;22694;51.040;3.684;2022-11-15T16:48:00;15.60;90.90
36710;DHT22;22694;51.040;3.684;2022-11-15T16:50:28;15.60;90.90
36710;DHT22;22694;51.040;3.684;2022-11-15T16:52:58;15.60;90.90
36710;DHT22;22694;51.040;3.684;2022-11-15T16:55:28;15.60;91.10
36710;DHT22;22694;51.040;3.684;2022-11-15T16:57:55;15.60;91.00
36710;DHT22;22694;51.040;3.684;2022-11-15T17:00:25;15.60;91.20
36710;DHT22;22694;51.040;3.684;2022-11-15T17:02:52;15.60;91.10
36710;DHT22;22694;51.040;3.684;2022-11-15T17:05:21;15.60;91.10
36710;DHT22;22694;51.040;3.684;2022-11-15T17:07:48;15.60;91.10
36710;DHT22;22694;51.040;3.684;2022-11-15T17:10:15;15.60;91.10
36710;DHT22;22694;51.040;3.684;2022-11-15T17:12:40;15.60;91.10
36710;DHT22;22694;51.040;3.684;2022-11-15T17:15:06;15.60;91.10
36710;DHT22;22694;51.040;3.684;2022-11-15T17:17:32;15.50;91.20
36710;DHT22;22694;51.040;3.684;2022-11-15T17:19:58;15.50;91.20
36710;DHT22;22694;51.040;3.684;2022-11-15T17:22:24;15.50;91.20
36710;DHT22;22694;51.040;3.684;2022-11-15T17:24:49;15.50;91.10
36710;DHT22;22694;51.040;3.684;2022-11-15T17:27:15;15.50;91.10
36710;DHT22;22694;51.040;3.684;2022-11-15T17:29:41;15.50;91.10
36710;DHT22;22694;51.040;3.684;2022-11-15T17:32:07;15.50;91.10
36710;DHT22;22694;51.040;3.684;2022-11-15T17:34:33;15.50;91.50
36710;DHT22;22694;51.040;3.684;2022-11-15T17:36:59;15.50;91.30
36710;DHT22;22694;51.040;3.684;2022-11-15T17:39:24;15.50;91.50
36710;DHT22;22694;51.040;3.684;2022-11-15T17:41:50;15.50;91.30
36710;DHT22;22694;51.040;3.684;2022-11-15T17:44:16;15.50;91.20
36710;DHT22;22694;51.040;3.684;2022-11-15T17:46:42;15.50;91.30
36710;DHT22;22694;51.040;3.684;2022-11-15T17:49:08;15.50;91.30
36710;DHT22;22694;51.040;3.684;2022-11-15T17:51:34;15.50;91.30
36710;DHT22;22694;51.040;3.684;2022-11-15T17:54:00;15.50;91.30
36710;DHT22;22694;51.040;3.684;2022-11-15T17:56:27;15.50;91.40
36710;DHT22;22694;51.040;3.684;2022-11-15T17:58:58;15.50;91.40
36710;DHT22;22694;51.040;3.684;2022-11-15T18:01:26;15.50;91.40
36710;DHT22;22694;51.040;3.684;2022-11-15T18:03:53;15.50;91.70
36710;DHT22;22694;51.040;3.684;2022-11-15T18:06:21;15.50;91.40
36710;DHT22;22694;51.040;3.684;2022-11-15T18:08:49;15.50;91.40
36710;DHT22;22694;51.040;3.684;2022-11-15T18:11:36;15.50;91.30
36710;DHT22;22694;51.040;3.684;2022-11-15T18:14:07;15.50;91.30